METAR Formatted Surface Weather Observation
Issued by NWS

Home | Current Version | Previous Version | Text Only | Print | Product List | Glossary On
Versions: 1 2
SAUS44 KMOB 232157
METAR KPRN 232156Z AUTO 35006KT 10SM CLR 14/M05 A3026 RMK AO2 SLP247
T01391050 is the U.S. government's official web portal to all federal, state and local government web resources and services.